Terminal Aerodrome Forecast
Issued by NWS

Home | Current Version | Previous Version | Text Only | Print | Product List | Glossary Off
Versions: 1 2 3 4 5 6 7 8 9 10 11 12 13 14 15 16 17

102
FTUS43 KABR 242324
TAFATY
TAF
KATY 242324Z 2500/2524 29010KT P6SM BKN250
     FM250300 28006KT P6SM SCT250
     FM251600 30013KT P6SM BKN100=

USA.gov is the U.S. government's official web portal to all federal, state and local government web resources and services.